createdAt,value
2023-10-06T00:02:32.941Z,15.43
2023-10-06T00:05:03.703Z,15.24
2023-10-06T00:07:33.989Z,15.10
2023-10-06T00:10:03.867Z,14.92
2023-10-06T00:12:34.078Z,14.81
2023-10-06T00:15:10.105Z,14.75
2023-10-06T00:17:41.838Z,14.67
2023-10-06T00:20:22.860Z,14.61
2023-10-06T00:22:56.446Z,14.55
2023-10-06T00:25:26.836Z,14.50
2023-10-06T00:27:57.207Z,14.52
2023-10-06T00:30:27.883Z,14.51
2023-10-06T00:32:59.290Z,14.49
2023-10-06T00:35:33.385Z,14.46
2023-10-06T00:38:18.881Z,14.45
2023-10-06T00:40:57.574Z,14.43
2023-10-06T00:43:39.005Z,14.41
2023-10-06T00:46:10.104Z,14.48
2023-10-06T00:48:54.966Z,14.46
2023-10-06T00:51:30.442Z,14.45
2023-10-06T00:54:06.797Z,14.46
2023-10-06T00:56:37.360Z,14.43
2023-10-06T00:59:08.404Z,14.33
2023-10-06T01:01:38.890Z,14.43
2023-10-06T01:04:10.178Z,14.47
2023-10-06T01:06:45.399Z,14.43
2023-10-06T01:09:19.142Z,14.42
2023-10-06T01:11:57.859Z,14.27
2023-10-06T01:14:29.001Z,14.32
2023-10-06T01:17:19.772Z,14.42
2023-10-06T01:19:50.641Z,14.28
2023-10-06T01:22:35.050Z,14.20
2023-10-06T01:25:13.195Z,14.07
2023-10-06T01:27:46.244Z,13.93
2023-10-06T01:30:23.090Z,13.95
2023-10-06T01:32:53.785Z,13.93
2023-10-06T01:35:26.489Z,13.93
2023-10-06T01:38:07.975Z,13.89
2023-10-06T01:40:45.824Z,13.85
2023-10-06T01:43:19.296Z,13.83
2023-10-06T01:45:49.544Z,13.82
2023-10-06T01:48:23.416Z,13.82
2023-10-06T01:50:56.806Z,13.73
2023-10-06T01:53:34.865Z,13.69
2023-10-06T01:56:09.630Z,13.62
2023-10-06T01:58:42.009Z,13.58
2023-10-06T02:01:12.091Z,13.60
2023-10-06T02:03:42.484Z,13.58
2023-10-06T02:06:18.190Z,13.53
2023-10-06T02:08:57.069Z,13.46
2023-10-06T02:11:33.252Z,13.48
2023-10-06T02:14:07.129Z,13.54
2023-10-06T02:16:37.602Z,13.58
2023-10-06T02:19:27.781Z,13.62
2023-10-06T02:21:58.080Z,13.55
2023-10-06T02:24:28.184Z,13.49
2023-10-06T02:27:05.137Z,13.45
2023-10-06T02:29:35.114Z,13.39
2023-10-06T02:32:11.262Z,13.34
2023-10-06T02:34:41.727Z,13.26
2023-10-06T02:37:12.614Z,13.24
2023-10-06T02:39:45.917Z,13.29
2023-10-06T02:42:21.632Z,13.26
2023-10-06T02:44:53.863Z,13.24
2023-10-06T02:47:24.179Z,13.22
2023-10-06T02:50:01.920Z,13.28
2023-10-06T02:52:32.520Z,13.40
2023-10-06T02:55:12.410Z,13.39
2023-10-06T02:57:53.086Z,13.35
2023-10-06T03:00:25.787Z,13.25
2023-10-06T03:03:19.815Z,13.25
2023-10-06T03:05:53.769Z,13.29
2023-10-06T03:08:25.977Z,13.28
2023-10-06T03:10:56.524Z,13.24
2023-10-06T03:13:35.980Z,13.27
2023-10-06T03:16:12.823Z,13.27
2023-10-06T03:18:43.429Z,13.33
2023-10-06T03:21:18.316Z,13.36
2023-10-06T03:23:58.600Z,13.30
2023-10-06T03:26:36.211Z,13.34
2023-10-06T03:29:13.603Z,13.24
2023-10-06T03:31:49.479Z,13.16
2023-10-06T03:34:25.676Z,13.11
2023-10-06T03:36:55.794Z,13.04
2023-10-06T03:39:33.974Z,13.01
2023-10-06T03:42:08.679Z,12.96
2023-10-06T03:44:39.030Z,12.95
2023-10-06T03:47:11.274Z,12.90
2023-10-06T03:49:42.712Z,12.87
2023-10-06T03:52:12.895Z,12.88
2023-10-06T03:54:44.100Z,12.95
2023-10-06T03:57:17.694Z,12.91
2023-10-06T03:59:48.218Z,12.91
2023-10-06T04:02:18.297Z,13.00
2023-10-06T04:04:52.042Z,12.92
2023-10-06T04:07:22.373Z,12.86
2023-10-06T04:09:52.910Z,12.78
2023-10-06T04:12:26.237Z,12.76
2023-10-06T04:14:56.689Z,12.81
2023-10-06T04:17:26.699Z,12.96
2023-10-06T04:19:56.988Z,12.96
2023-10-06T04:22:27.108Z,12.96
2023-10-06T04:24:57.372Z,12.94
2023-10-06T04:27:28.536Z,12.89
2023-10-06T04:29:58.838Z,12.83
2023-10-06T04:32:30.172Z,12.87
2023-10-06T04:35:02.919Z,12.93
2023-10-06T04:37:33.037Z,12.94
2023-10-06T04:40:03.263Z,12.95
2023-10-06T04:42:33.986Z,12.83
2023-10-06T04:45:09.095Z,12.83
2023-10-06T04:47:42.768Z,12.76
2023-10-06T04:50:18.184Z,12.70
2023-10-06T04:52:49.390Z,12.67
2023-10-06T04:55:21.607Z,12.59
2023-10-06T04:57:51.916Z,12.55
2023-10-06T05:00:22.607Z,12.86
2023-10-06T05:02:55.674Z,13.02
2023-10-06T05:05:27.466Z,13.13
2023-10-06T05:07:57.654Z,13.12
2023-10-06T05:10:28.750Z,13.14
2023-10-06T05:12:59.250Z,13.11
2023-10-06T05:15:29.648Z,13.24
2023-10-06T05:18:01.189Z,13.26
2023-10-06T05:20:33.846Z,13.17
2023-10-06T05:23:09.612Z,12.99
2023-10-06T05:25:40.890Z,13.00
2023-10-06T05:28:13.884Z,13.03
2023-10-06T05:30:44.825Z,13.25
2023-10-06T05:33:16.593Z,13.27
2023-10-06T05:35:48.666Z,13.27
2023-10-06T05:38:18.847Z,13.12
2023-10-06T05:40:50.583Z,12.90
2023-10-06T05:43:20.742Z,12.86
2023-10-06T05:45:54.236Z,12.79
2023-10-06T05:48:24.795Z,12.78
2023-10-06T05:50:58.955Z,12.74
2023-10-06T05:53:32.839Z,12.74
2023-10-06T05:56:05.375Z,12.91
2023-10-06T05:58:36.833Z,12.89
2023-10-06T06:01:13.260Z,13.07
2023-10-06T06:03:48.365Z,12.83
2023-10-06T06:06:24.771Z,12.76
2023-10-06T06:08:55.079Z,12.81
2023-10-06T06:11:25.565Z,12.81
2023-10-06T06:14:15.259Z,12.79
2023-10-06T06:16:47.614Z,12.77
2023-10-06T06:19:17.808Z,12.68
2023-10-06T06:21:48.205Z,12.69
2023-10-06T06:24:24.481Z,12.66
2023-10-06T06:26:54.799Z,12.65
2023-10-06T06:29:25.428Z,12.74
2023-10-06T06:31:57.425Z,12.92
2023-10-06T06:34:27.507Z,12.82
2023-10-06T06:36:57.748Z,12.92
2023-10-06T06:39:29.860Z,13.16
2023-10-06T06:42:00.128Z,13.23
2023-10-06T06:44:32.245Z,12.97
2023-10-06T06:47:03.020Z,12.65
2023-10-06T06:49:33.389Z,12.55
2023-10-06T06:52:03.729Z,12.52
2023-10-06T06:54:39.112Z,12.72
2023-10-06T06:57:12.025Z,12.79
2023-10-06T06:59:45.320Z,12.84
2023-10-06T07:02:16.848Z,12.86
2023-10-06T07:04:47.020Z,12.94
2023-10-06T07:07:17.787Z,12.91
2023-10-06T07:09:49.010Z,12.86
2023-10-06T07:12:20.712Z,12.78
2023-10-06T07:14:51.320Z,12.70
2023-10-06T07:17:21.694Z,12.60
2023-10-06T07:19:51.755Z,12.53
2023-10-06T07:22:28.947Z,12.44
2023-10-06T07:24:59.157Z,12.35
2023-10-06T07:27:35.156Z,12.39
2023-10-06T07:30:07.161Z,12.46
2023-10-06T07:32:37.633Z,12.80
2023-10-06T07:35:08.294Z,12.95
2023-10-06T07:37:38.706Z,13.07
2023-10-06T07:40:15.395Z,13.26
2023-10-06T07:42:46.977Z,13.38
2023-10-06T07:45:17.452Z,13.48
2023-10-06T07:47:48.213Z,13.55
2023-10-06T07:50:18.901Z,13.62
2023-10-06T07:52:50.217Z,13.54
2023-10-06T07:55:23.704Z,13.70
2023-10-06T07:57:54.436Z,13.73
2023-10-06T08:00:32.135Z,13.82
2023-10-06T08:03:05.840Z,13.82
2023-10-06T08:05:36.036Z,13.88
2023-10-06T08:08:06.704Z,13.93
2023-10-06T08:10:36.736Z,13.99
2023-10-06T08:13:07.041Z,13.94
2023-10-06T08:15:40.905Z,13.98
2023-10-06T08:18:12.038Z,14.02
2023-10-06T08:20:42.630Z,14.01
2023-10-06T08:23:14.205Z,13.99
2023-10-06T08:25:57.409Z,13.88
2023-10-06T08:28:33.557Z,13.95
2023-10-06T08:31:06.262Z,13.95
2023-10-06T08:33:38.303Z,13.92
2023-10-06T08:36:10.789Z,13.87
2023-10-06T08:38:40.778Z,13.93
2023-10-06T08:41:11.756Z,13.91
2023-10-06T08:43:42.853Z,13.85
2023-10-06T08:46:17.584Z,13.82
2023-10-06T08:48:49.094Z,13.78
2023-10-06T08:51:23.174Z,13.59
2023-10-06T08:53:58.021Z,13.68
2023-10-06T08:56:27.988Z,13.72
2023-10-06T08:58:58.256Z,13.77
2023-10-06T09:01:31.303Z,13.82
2023-10-06T09:04:06.817Z,13.85
2023-10-06T09:06:38.255Z,13.90
2023-10-06T09:09:08.509Z,13.86
2023-10-06T09:11:42.463Z,13.93
2023-10-06T09:14:15.552Z,13.92
2023-10-06T09:16:53.279Z,13.91
2023-10-06T09:19:23.556Z,13.85
2023-10-06T09:22:09.782Z,13.93
2023-10-06T09:24:41.382Z,13.96
2023-10-06T09:27:24.030Z,13.99
2023-10-06T09:30:13.094Z,14.09
2023-10-06T09:32:43.158Z,14.16
2023-10-06T09:35:24.467Z,14.45
2023-10-06T09:37:59.370Z,14.61
2023-10-06T09:40:34.422Z,14.74
2023-10-06T09:43:07.884Z,14.87
2023-10-06T09:45:39.701Z,14.92
2023-10-06T09:48:17.889Z,15.13
2023-10-06T09:50:49.054Z,15.32
2023-10-06T09:53:22.021Z,15.58
2023-10-06T09:55:54.350Z,15.87
2023-10-06T09:58:25.307Z,16.11
2023-10-06T10:00:57.082Z,16.25
2023-10-06T10:03:27.549Z,16.23
2023-10-06T10:06:03.196Z,16.08
2023-10-06T10:08:35.377Z,16.14
2023-10-06T10:11:31.836Z,16.22
2023-10-06T10:14:36.436Z,16.32
2023-10-06T10:17:36.947Z,16.33
2023-10-06T10:20:11.717Z,16.40
2023-10-06T10:22:45.357Z,16.36
2023-10-06T10:28:20.697Z,16.52
2023-10-06T10:30:52.585Z,16.47
2023-10-06T10:33:27.150Z,16.52
2023-10-06T10:36:17.105Z,16.52
2023-10-06T10:38:48.011Z,16.41
2023-10-06T10:41:20.325Z,16.45
2023-10-06T10:43:51.095Z,16.51
2023-10-06T10:46:41.480Z,16.45
2023-10-06T10:49:15.874Z,16.19
2023-10-06T10:51:59.769Z,16.49
2023-10-06T10:54:33.704Z,16.59
2023-10-06T10:57:13.688Z,16.71
2023-10-06T11:00:06.826Z,17.52
2023-10-06T11:02:49.483Z,17.91
2023-10-06T11:05:24.329Z,18.37
2023-10-06T11:08:00.853Z,18.59
2023-10-06T11:10:35.138Z,19.01
2023-10-06T11:13:48.200Z,18.82
2023-10-06T11:16:25.598Z,18.76
2023-10-06T11:18:55.740Z,18.82
2023-10-06T11:21:29.463Z,18.92
2023-10-06T11:24:00.860Z,19.07
2023-10-06T11:26:34.052Z,19.27
2023-10-06T11:29:04.130Z,19.58
2023-10-06T11:31:34.596Z,19.65
2023-10-06T11:34:05.602Z,19.67
2023-10-06T11:36:35.937Z,19.63
2023-10-06T11:39:06.213Z,19.74
2023-10-06T11:41:36.663Z,19.97
2023-10-06T11:44:10.038Z,20.03
2023-10-06T11:46:54.062Z,20.20
2023-10-06T11:49:25.500Z,20.14
2023-10-06T11:51:55.926Z,20.12
2023-10-06T11:54:28.095Z,20.20
2023-10-06T11:56:59.410Z,20.46
2023-10-06T11:59:30.743Z,20.57
2023-10-06T12:02:11.519Z,20.61
2023-10-06T12:04:41.629Z,20.37
2023-10-06T12:07:27.039Z,20.05
2023-10-06T12:10:07.529Z,19.78
2023-10-06T12:12:38.457Z,19.59
2023-10-06T12:15:09.295Z,19.76
2023-10-06T12:17:40.837Z,19.90
2023-10-06T12:20:16.060Z,19.89
2023-10-06T12:22:47.489Z,19.67
2023-10-06T12:25:18.625Z,19.64
2023-10-06T12:27:49.370Z,20.30
2023-10-06T12:30:20.487Z,20.72
2023-10-06T12:32:51.027Z,21.34
2023-10-06T12:35:21.123Z,21.70
2023-10-06T12:37:54.708Z,21.61
2023-10-06T12:40:25.042Z,21.83
2023-10-06T12:42:55.310Z,22.87
2023-10-06T12:45:25.642Z,23.40
2023-10-06T12:47:55.885Z,23.23
2023-10-06T12:50:26.315Z,23.65
2023-10-06T12:52:57.618Z,23.90
2023-10-06T12:55:29.702Z,24.12
2023-10-06T12:58:00.049Z,24.38
2023-10-06T13:00:30.755Z,24.19
2023-10-06T13:03:01.412Z,23.61
2023-10-06T13:05:31.714Z,23.56
2023-10-06T13:08:03.307Z,23.69
2023-10-06T13:10:33.368Z,23.83
2023-10-06T13:13:08.573Z,24.15
2023-10-06T13:15:38.596Z,24.61
2023-10-06T13:18:11.516Z,25.67
2023-10-06T13:20:42.982Z,26.55
2023-10-06T13:23:13.404Z,26.42
2023-10-06T13:25:44.432Z,26.98
2023-10-06T13:28:19.342Z,27.00
2023-10-06T13:30:49.552Z,27.19
2023-10-06T13:33:20.499Z,27.26
2023-10-06T13:35:50.948Z,27.25
2023-10-06T13:38:21.595Z,27.27
2023-10-06T13:40:52.704Z,27.25
2023-10-06T13:43:23.223Z,27.22
2023-10-06T13:45:53.372Z,27.16
2023-10-06T13:48:28.242Z,27.11
2023-10-06T13:51:01.517Z,27.38
2023-10-06T13:53:32.363Z,27.59
2023-10-06T13:56:02.521Z,27.85
2023-10-06T13:58:32.861Z,27.64
2023-10-06T14:01:04.125Z,27.11
2023-10-06T14:03:34.961Z,27.54
2023-10-06T14:06:05.883Z,28.19
2023-10-06T14:08:36.326Z,28.48
2023-10-06T14:11:06.808Z,28.74
2023-10-06T14:13:37.073Z,28.95
2023-10-06T14:16:07.234Z,29.30
2023-10-06T14:18:41.279Z,29.42
2023-10-06T14:21:13.865Z,29.35
2023-10-06T14:23:49.321Z,29.18
2023-10-06T14:26:21.503Z,28.93
2023-10-06T14:28:52.634Z,28.73
2023-10-06T14:31:31.843Z,28.16
2023-10-06T14:34:20.424Z,27.74
2023-10-06T14:36:59.595Z,26.90
2023-10-06T14:39:48.141Z,26.60
2023-10-06T14:42:36.360Z,26.95
2023-10-06T14:45:25.503Z,27.68
2023-10-06T14:47:55.770Z,28.46
2023-10-06T14:50:26.716Z,28.91
2023-10-06T14:52:59.412Z,29.38
2023-10-06T14:55:35.101Z,29.95
2023-10-06T14:58:07.336Z,30.13
2023-10-06T15:00:37.601Z,29.75
2023-10-06T15:03:10.571Z,29.73
2023-10-06T15:05:40.868Z,29.66
2023-10-06T15:08:14.626Z,30.66
2023-10-06T15:10:45.589Z,31.19
2023-10-06T15:13:21.047Z,31.76
2023-10-06T15:15:52.303Z,32.19
2023-10-06T15:18:24.242Z,32.34
2023-10-06T15:20:54.566Z,32.27
2023-10-06T15:23:24.759Z,32.14
2023-10-06T15:25:58.803Z,31.10
2023-10-06T15:28:38.833Z,30.38
2023-10-06T15:31:14.244Z,29.85
2023-10-06T15:33:48.732Z,28.82
2023-10-06T15:36:19.269Z,28.97
2023-10-06T15:38:49.410Z,28.29
2023-10-06T15:41:19.876Z,28.19
2023-10-06T15:43:50.120Z,28.13
2023-10-06T15:46:22.177Z,27.79
2023-10-06T15:48:57.740Z,27.54
2023-10-06T15:51:27.987Z,27.32
2023-10-06T15:53:58.152Z,27.25
2023-10-06T15:56:28.461Z,26.97
2023-10-06T15:58:58.383Z,26.69
2023-10-06T16:01:29.121Z,26.71
2023-10-06T16:04:00.393Z,27.05
2023-10-06T16:06:34.347Z,27.66
2023-10-06T16:09:10.612Z,28.22
2023-10-06T16:11:44.732Z,28.66
2023-10-06T16:14:17.951Z,28.98
2023-10-06T16:16:51.257Z,29.16
2023-10-06T16:19:21.556Z,29.28
2023-10-06T16:21:53.749Z,29.18
2023-10-06T16:24:23.825Z,28.77
2023-10-06T16:26:54.163Z,28.75
2023-10-06T16:29:25.135Z,29.13
2023-10-06T16:31:55.647Z,29.53
2023-10-06T16:34:25.668Z,29.60
2023-10-06T16:36:56.017Z,29.62
2023-10-06T16:39:28.092Z,29.83
2023-10-06T16:41:58.419Z,29.82
2023-10-06T16:44:28.395Z,29.60
2023-10-06T16:46:58.644Z,29.67
2023-10-06T16:49:30.349Z,29.28
2023-10-06T16:52:01.355Z,29.25
2023-10-06T16:54:33.858Z,29.74
2023-10-06T16:57:05.075Z,30.27
2023-10-06T16:59:37.671Z,30.38
2023-10-06T17:02:09.074Z,30.42
2023-10-06T17:04:41.203Z,30.99
2023-10-06T17:07:12.508Z,31.15
2023-10-06T17:09:43.538Z,31.02
2023-10-06T17:12:13.927Z,30.99
2023-10-06T17:14:44.167Z,30.56
2023-10-06T17:17:15.297Z,30.25
2023-10-06T17:19:45.961Z,29.90
2023-10-06T17:22:16.481Z,29.58
2023-10-06T17:24:47.494Z,29.23
2023-10-06T17:27:17.830Z,28.98
2023-10-06T17:29:48.592Z,28.91
2023-10-06T17:32:19.007Z,29.15
2023-10-06T17:34:49.067Z,29.46
2023-10-06T17:37:30.753Z,29.78
2023-10-06T17:40:01.430Z,30.06
2023-10-06T17:42:32.102Z,30.18
2023-10-06T17:45:06.427Z,30.29
2023-10-06T17:47:37.380Z,30.09
2023-10-06T17:50:15.102Z,29.63
2023-10-06T17:52:48.304Z,29.38
2023-10-06T17:55:18.646Z,29.41
2023-10-06T17:57:51.353Z,29.56
2023-10-06T18:00:21.643Z,29.69
2023-10-06T18:02:57.496Z,29.73
2023-10-06T18:05:28.368Z,29.71
2023-10-06T18:07:58.661Z,29.55
2023-10-06T18:10:31.604Z,29.46
2023-10-06T18:13:01.997Z,29.27
2023-10-06T18:15:31.969Z,29.00
2023-10-06T18:18:02.403Z,29.07
2023-10-06T18:20:39.484Z,29.02
2023-10-06T18:23:10.652Z,28.68
2023-10-06T18:25:47.394Z,28.41
2023-10-06T18:28:22.523Z,28.21
2023-10-06T18:30:59.070Z,28.25
2023-10-06T18:33:31.056Z,28.19
2023-10-06T18:36:02.178Z,28.03
2023-10-06T18:38:32.402Z,27.85
2023-10-06T18:41:07.300Z,27.52
2023-10-06T18:43:37.947Z,27.56
2023-10-06T18:46:11.988Z,27.23
2023-10-06T18:48:44.635Z,27.12
2023-10-06T18:51:15.879Z,27.16
2023-10-06T18:53:50.291Z,26.97
2023-10-06T18:56:20.376Z,26.85
2023-10-06T18:58:53.389Z,26.75
2023-10-06T19:01:24.268Z,26.64
2023-10-06T19:03:54.416Z,26.55
2023-10-06T19:06:27.072Z,26.43
2023-10-06T19:08:57.219Z,26.22
2023-10-06T19:11:28.814Z,26.15
2023-10-06T19:13:58.715Z,25.99
2023-10-06T19:16:29.287Z,25.55
2023-10-06T19:19:00.605Z,25.21
2023-10-06T19:21:31.040Z,24.91
2023-10-06T19:24:05.647Z,24.74
2023-10-06T19:26:50.045Z,24.48
2023-10-06T19:29:24.629Z,24.39
2023-10-06T19:32:16.830Z,24.30
2023-10-06T19:34:47.323Z,24.23
2023-10-06T19:37:22.348Z,24.23
2023-10-06T19:39:58.658Z,24.16
2023-10-06T19:42:33.984Z,24.15
2023-10-06T19:45:04.974Z,24.10
2023-10-06T19:47:36.186Z,24.07
2023-10-06T19:50:14.294Z,23.95
2023-10-06T19:52:45.543Z,23.87
2023-10-06T19:55:16.168Z,23.86
2023-10-06T19:57:47.103Z,23.90
2023-10-06T20:00:28.434Z,23.81
2023-10-06T20:02:59.560Z,23.65
2023-10-06T20:05:30.031Z,23.27
2023-10-06T20:08:02.502Z,23.12
2023-10-06T20:10:33.063Z,23.01
2023-10-06T20:13:05.295Z,22.98
2023-10-06T20:15:37.565Z,22.79
2023-10-06T20:18:08.989Z,22.82
2023-10-06T20:20:41.071Z,22.91
2023-10-06T20:23:12.030Z,22.78
2023-10-06T20:25:43.463Z,22.67
2023-10-06T20:28:15.752Z,22.64
2023-10-06T20:30:46.206Z,22.46
2023-10-06T20:33:17.379Z,22.24
2023-10-06T20:35:47.917Z,21.95
2023-10-06T20:38:19.222Z,21.72
2023-10-06T20:40:49.853Z,21.67
2023-10-06T20:43:21.464Z,21.61
2023-10-06T20:45:52.157Z,21.60
2023-10-06T20:48:23.445Z,21.52
2023-10-06T20:50:53.956Z,21.38
2023-10-06T20:53:25.776Z,21.33
2023-10-06T20:56:06.021Z,21.36
2023-10-06T20:58:37.122Z,21.39
2023-10-06T21:01:08.712Z,21.14
2023-10-06T21:03:40.657Z,20.91
2023-10-06T21:06:11.410Z,20.80
2023-10-06T21:08:43.006Z,20.73
2023-10-06T21:11:15.192Z,20.67
2023-10-06T21:13:47.275Z,20.68
2023-10-06T21:16:17.764Z,20.67
2023-10-06T21:18:49.122Z,20.88
2023-10-06T21:21:19.554Z,20.91
2023-10-06T21:23:50.612Z,20.87
2023-10-06T21:26:21.234Z,20.84
2023-10-06T21:28:52.869Z,20.82
2023-10-06T21:31:23.259Z,20.88
2023-10-06T21:33:54.719Z,20.86
2023-10-06T21:36:25.420Z,20.87
2023-10-06T21:38:56.656Z,20.90
2023-10-06T21:41:27.062Z,20.73
2023-10-06T21:43:58.235Z,20.81
2023-10-06T21:46:28.728Z,20.78
2023-10-06T21:48:59.860Z,20.80
2023-10-06T21:51:30.268Z,20.60
2023-10-06T21:54:02.612Z,20.68
2023-10-06T21:56:33.006Z,20.65
2023-10-06T21:59:04.518Z,20.65
2023-10-06T22:01:34.977Z,20.56
2023-10-06T22:04:06.192Z,20.45
2023-10-06T22:06:36.774Z,20.55
2023-10-06T22:09:10.940Z,20.68
2023-10-06T22:11:43.169Z,20.67
2023-10-06T22:14:14.904Z,20.68
2023-10-06T22:16:46.318Z,20.73
2023-10-06T22:19:17.854Z,20.74
2023-10-06T22:21:48.304Z,20.69
2023-10-06T22:24:19.430Z,20.51
2023-10-06T22:26:49.887Z,20.53
2023-10-06T22:29:20.858Z,20.47
2023-10-06T22:31:52.509Z,20.42
2023-10-06T22:34:24.965Z,20.37
2023-10-06T22:37:01.700Z,20.39
2023-10-06T22:39:36.234Z,20.28
2023-10-06T22:42:06.684Z,20.27
2023-10-06T22:44:38.443Z,20.38
2023-10-06T22:47:09.029Z,20.39
2023-10-06T22:49:40.275Z,20.26
2023-10-06T22:52:10.790Z,20.21
2023-10-06T22:54:41.992Z,20.17
2023-10-06T22:57:12.457Z,20.23
2023-10-06T22:59:43.371Z,20.35
2023-10-06T23:02:13.836Z,20.45
2023-10-06T23:04:45.619Z,20.46
2023-10-06T23:07:16.168Z,20.49
2023-10-06T23:09:48.087Z,20.48
2023-10-06T23:12:18.995Z,20.53
2023-10-06T23:14:49.983Z,20.50
2023-10-06T23:17:21.178Z,20.55
2023-10-06T23:20:01.831Z,20.65
2023-10-06T23:22:32.820Z,20.65
2023-10-06T23:25:05.326Z,20.68
2023-10-06T23:27:36.025Z,20.70
2023-10-06T23:30:09.874Z,20.67
2023-10-06T23:32:40.690Z,20.65
2023-10-06T23:35:11.844Z,20.66
2023-10-06T23:37:43.631Z,20.69
2023-10-06T23:40:20.474Z,20.60
2023-10-06T23:42:54.502Z,20.52
2023-10-06T23:45:32.558Z,20.48
2023-10-06T23:48:11.998Z,20.42
2023-10-06T23:50:55.213Z,20.35
2023-10-06T23:53:29.900Z,20.24
2023-10-06T23:56:02.604Z,20.25
2023-10-06T23:58:35.198Z,20.31
